Time;durP1;ratioP1;P1;durP2;ratioP2;P2;SDS_P1;SDS_P2;PMS_P1;PMS_P2;Temp;Humidity;BMP_temperature;BMP_pressure;BME280_temperature;BME280_humidity;BME280_pressure;Samples;Min_cycle;Max_cycle;Signal;HPM_P1;HPM_P2
2023/09/02 00:00:19;;;;;;;;;;;21.90;52.10;;;;;;5084247;28;19928;-60
2023/09/02 00:02:46;;;;;;;;;;;21.80;52.00;;;;;;5088433;28;19970;-60
2023/09/02 00:05:12;;;;;;;;;;;21.90;52.10;;;;;;5079687;28;19927;-60
2023/09/02 00:07:39;;;;;;;;;;;21.90;52.10;;;;;;5104638;28;19924;-59
2023/09/02 00:10:08;;;;;;;;;;;21.90;52.10;;;;;;5080332;28;19951;-60
2023/09/02 00:12:36;;;;;;;;;;;21.80;52.00;;;;;;5080749;28;19932;-60
2023/09/02 00:15:03;;;;;;;;;;;21.80;52.00;;;;;;5085659;28;19928;-60
2023/09/02 00:17:30;;;;;;;;;;;21.80;52.00;;;;;;5086487;28;19931;-61
2023/09/02 00:19:57;;;;;;;;;;;21.80;52.00;;;;;;5088802;28;19928;-60
2023/09/02 00:22:24;;;;;;;;;;;21.80;52.00;;;;;;5084267;28;19938;-60
2023/09/02 00:24:50;;;;;;;;;;;21.80;52.00;;;;;;5087586;28;20018;-61
2023/09/02 00:27:17;;;;;;;;;;;21.80;52.00;;;;;;5095678;28;19969;-60
2023/09/02 00:29:45;;;;;;;;;;;21.80;51.90;;;;;;5096201;28;19933;-60
2023/09/02 00:32:12;;;;;;;;;;;21.80;52.00;;;;;;5086536;28;19924;-60
2023/09/02 00:34:48;;;;;;;;;;;21.80;52.00;;;;;;5087847;28;19932;-60
2023/09/02 00:37:14;;;;;;;;;;;21.80;52.00;;;;;;5092211;28;19935;-61
2023/09/02 00:39:41;;;;;;;;;;;21.80;52.00;;;;;;5106494;28;19969;-60
2023/09/02 00:42:09;;;;;;;;;;;21.80;51.90;;;;;;5088613;28;19924;-60
2023/09/02 00:44:35;;;;;;;;;;;21.80;51.90;;;;;;5087304;28;19971;-60
2023/09/02 00:47:04;;;;;;;;;;;21.80;52.00;;;;;;5079118;28;19928;-61
2023/09/02 00:49:32;;;;;;;;;;;21.80;52.00;;;;;;5103458;28;19981;-60
2023/09/02 00:51:58;;;;;;;;;;;21.80;52.00;;;;;;5106068;28;19924;-60
2023/09/02 00:54:25;;;;;;;;;;;21.80;52.00;;;;;;5081853;28;19928;-61
2023/09/02 00:56:52;;;;;;;;;;;21.80;52.00;;;;;;5088344;28;19924;-61
2023/09/02 00:59:18;;;;;;;;;;;21.80;52.00;;;;;;5092287;28;19924;-60
2023/09/02 01:01:46;;;;;;;;;;;21.80;52.00;;;;;;5094372;28;19970;-60
2023/09/02 01:04:14;;;;;;;;;;;21.80;52.00;;;;;;5091624;28;19924;-60
2023/09/02 01:06:40;;;;;;;;;;;21.80;52.00;;;;;;5093949;28;19977;-60
2023/09/02 01:09:07;;;;;;;;;;;21.80;52.00;;;;;;5094621;28;19932;-60
2023/09/02 01:11:34;;;;;;;;;;;21.80;52.00;;;;;;5095111;28;19928;-60
2023/09/02 01:14:01;;;;;;;;;;;21.80;52.10;;;;;;5103787;28;19977;-60
2023/09/02 01:16:28;;;;;;;;;;;21.80;52.10;;;;;;5107542;28;19950;-61
2023/09/02 01:18:54;;;;;;;;;;;21.80;52.00;;;;;;5091293;28;19988;-60
2023/09/02 01:21:33;;;;;;;;;;;21.70;52.00;;;;;;5106558;28;19942;-60
2023/09/02 01:24:06;;;;;;;;;;;21.80;52.00;;;;;;5095503;28;19924;-60
2023/09/02 01:26:37;;;;;;;;;;;21.70;51.90;;;;;;5093213;28;19959;-60
2023/09/02 01:29:06;;;;;;;;;;;21.80;52.00;;;;;;5091978;28;19981;-60
2023/09/02 01:31:32;;;;;;;;;;;21.70;51.90;;;;;;5092438;28;19924;-60
2023/09/02 01:33:59;;;;;;;;;;;21.80;52.00;;;;;;5092763;28;19928;-60
2023/09/02 01:36:26;;;;;;;;;;;21.80;52.00;;;;;;5116366;27;20178;-60
2023/09/02 01:38:53;;;;;;;;;;;21.70;51.90;;;;;;5112731;27;19924;-60
2023/09/02 01:41:20;;;;;;;;;;;21.70;51.90;;;;;;5092603;28;19924;-60
2023/09/02 01:43:47;;;;;;;;;;;21.70;51.90;;;;;;5095184;28;19932;-60
2023/09/02 01:46:15;;;;;;;;;;;21.70;51.90;;;;;;5088632;28;19930;-60
2023/09/02 01:48:41;;;;;;;;;;;21.70;51.90;;;;;;5099428;28;19969;-59
2023/09/02 01:51:08;;;;;;;;;;;21.70;52.50;;;;;;5090208;28;19924;-60
2023/09/02 01:53:35;;;;;;;;;;;21.70;51.90;;;;;;5097564;28;19924;-60
2023/09/02 01:56:02;;;;;;;;;;;21.70;51.90;;;;;;5086680;28;19932;-61
2023/09/02 01:58:28;;;;;;;;;;;21.70;51.90;;;;;;5101923;28;19924;-60
2023/09/02 02:00:55;;;;;;;;;;;21.70;52.00;;;;;;5084192;28;19928;-60
2023/09/02 02:03:24;;;;;;;;;;;21.70;51.90;;;;;;5097679;28;19928;-60
2023/09/02 02:05:53;;;;;;;;;;;21.70;51.90;;;;;;5086138;28;19924;-59
2023/09/02 02:08:20;;;;;;;;;;;21.70;51.90;;;;;;5084048;28;19924;-60
2023/09/02 02:10:47;;;;;;;;;;;21.70;52.10;;;;;;5091473;28;19924;-60
2023/09/02 02:13:14;;;;;;;;;;;21.70;51.90;;;;;;5116277;27;19946;-60
2023/09/02 02:15:41;;;;;;;;;;;21.70;52.00;;;;;;5091039;28;19975;-60
2023/09/02 02:18:07;;;;;;;;;;;21.70;52.00;;;;;;5093319;28;19927;-60
2023/09/02 02:20:38;;;;;;;;;;;21.70;52.00;;;;;;5090788;28;19932;-60
2023/09/02 02:23:05;;;;;;;;;;;21.70;52.10;;;;;;5096667;28;19932;-60
2023/09/02 02:25:31;;;;;;;;;;;21.70;52.10;;;;;;5105796;28;19976;-60
2023/09/02 02:27:59;;;;;;;;;;;21.70;52.10;;;;;;5095586;28;19947;-60
2023/09/02 02:30:26;;;;;;;;;;;21.70;52.10;;;;;;5100723;28;19931;-60
2023/09/02 02:32:53;;;;;;;;;;;21.70;52.10;;;;;;5098545;28;19935;-60
2023/09/02 02:35:21;;;;;;;;;;;21.70;52.00;;;;;;5090813;28;19967;-60
2023/09/02 02:37:51;;;;;;;;;;;21.70;52.00;;;;;;5107653;28;19928;-59
2023/09/02 02:40:18;;;;;;;;;;;21.70;52.00;;;;;;5107878;28;19924;-60
2023/09/02 02:42:45;;;;;;;;;;;21.70;52.00;;;;;;5091905;28;19928;-59
2023/09/02 02:45:12;;;;;;;;;;;21.70;52.00;;;;;;5085822;28;19931;-61
2023/09/02 02:47:38;;;;;;;;;;;21.70;52.00;;;;;;5102628;28;19928;-60
2023/09/02 02:50:05;;;;;;;;;;;21.70;52.00;;;;;;5083878;28;19928;-59
2023/09/02 02:52:32;;;;;;;;;;;21.70;52.00;;;;;;5090338;28;19968;-60
2023/09/02 02:55:00;;;;;;;;;;;21.70;51.90;;;;;;5090676;28;19928;-60
2023/09/02 02:57:27;;;;;;;;;;;21.70;51.90;;;;;;5090434;28;20446;-60
2023/09/02 02:59:54;;;;;;;;;;;21.70;51.90;;;;;;5107674;28;19928;-60
2023/09/02 03:02:20;;;;;;;;;;;21.70;52.00;;;;;;5091417;28;19932;-60
2023/09/02 03:04:48;;;;;;;;;;;21.70;52.00;;;;;;5089826;28;19924;-59
2023/09/02 03:07:15;;;;;;;;;;;21.70;51.90;;;;;;5107225;28;19935;-60
2023/09/02 03:09:42;;;;;;;;;;;21.60;51.80;;;;;;5106602;28;19963;-60
2023/09/02 03:12:10;;;;;;;;;;;21.60;51.90;;;;;;5101620;28;19963;-61
2023/09/02 03:14:37;;;;;;;;;;;21.60;51.80;;;;;;5096026;28;19947;-61
2023/09/02 03:17:04;;;;;;;;;;;21.60;51.90;;;;;;5115611;27;19945;-60
2023/09/02 03:19:30;;;;;;;;;;;21.60;51.90;;;;;;5098068;28;19985;-60
2023/09/02 03:21:57;;;;;;;;;;;21.60;51.90;;;;;;5095716;28;19970;-61
2023/09/02 03:24:24;;;;;;;;;;;21.60;51.90;;;;;;5114844;27;19946;-60
2023/09/02 03:26:51;;;;;;;;;;;21.60;51.90;;;;;;5124048;27;19924;-60
2023/09/02 03:29:19;;;;;;;;;;;21.60;51.90;;;;;;5094998;28;19928;-60
2023/09/02 03:31:46;;;;;;;;;;;21.60;51.90;;;;;;5102223;28;19994;-59
2023/09/02 03:34:13;;;;;;;;;;;21.60;52.00;;;;;;5097489;27;19928;-60
2023/09/02 03:36:40;;;;;;;;;;;21.60;51.90;;;;;;5090682;28;19935;-60
2023/09/02 03:39:06;;;;;;;;;;;21.60;51.90;;;;;;5091074;28;20029;-60
2023/09/02 03:41:37;;;;;;;;;;;21.60;51.90;;;;;;5091946;28;19924;-61
2023/09/02 03:44:04;;;;;;;;;;;21.60;51.90;;;;;;5073261;28;19924;-60
2023/09/02 03:46:32;;;;;;;;;;;21.60;51.90;;;;;;5090408;28;20024;-60
2023/09/02 03:48:59;;;;;;;;;;;21.60;51.90;;;;;;5089577;28;19950;-60
2023/09/02 03:51:25;;;;;;;;;;;21.60;51.90;;;;;;5092320;28;19928;-60
2023/09/02 03:53:52;;;;;;;;;;;21.60;51.90;;;;;;5091225;28;19978;-60
2023/09/02 03:56:19;;;;;;;;;;;21.60;51.90;;;;;;5090100;28;20236;-60
2023/09/02 03:58:46;;;;;;;;;;;21.60;51.90;;;;;;5093431;28;19928;-60
2023/09/02 04:01:13;;;;;;;;;;;21.60;52.00;;;;;;5111175;28;20039;-60
2023/09/02 04:03:41;;;;;;;;;;;21.60;52.00;;;;;;5105645;28;19978;-59
2023/09/02 04:06:08;;;;;;;;;;;21.60;52.00;;;;;;5097308;28;19924;-61
2023/09/02 04:08:34;;;;;;;;;;;21.60;51.90;;;;;;5089646;28;19935;-60
2023/09/02 04:11:02;;;;;;;;;;;21.60;52.00;;;;;;5109280;28;19924;-61
2023/09/02 04:13:29;;;;;;;;;;;21.60;51.90;;;;;;5119202;28;19925;-60
2023/09/02 04:15:56;;;;;;;;;;;21.60;51.90;;;;;;5098648;28;19952;-60
2023/09/02 04:18:23;;;;;;;;;;;21.60;51.90;;;;;;5083696;28;20031;-61
2023/09/02 04:20:51;;;;;;;;;;;21.60;52.00;;;;;;5086522;28;19924;-61
2023/09/02 04:23:18;;;;;;;;;;;21.60;51.90;;;;;;5094224;28;19923;-60
2023/09/02 04:25:46;;;;;;;;;;;21.60;51.90;;;;;;5103672;28;19924;-60
2023/09/02 04:28:13;;;;;;;;;;;21.60;51.90;;;;;;5115601;28;20031;-60
2023/09/02 04:30:39;;;;;;;;;;;21.60;51.90;;;;;;5089934;28;19924;-60
2023/09/02 04:33:06;;;;;;;;;;;21.60;51.90;;;;;;5092512;28;20031;-60
2023/09/02 04:35:35;;;;;;;;;;;21.60;51.90;;;;;;5100339;28;19992;-61
2023/09/02 04:38:04;;;;;;;;;;;21.60;51.90;;;;;;5103772;28;19928;-60
2023/09/02 04:40:30;;;;;;;;;;;21.60;51.90;;;;;;5100101;28;19932;-60
2023/09/02 04:42:57;;;;;;;;;;;21.60;51.90;;;;;;5110941;28;19985;-60
2023/09/02 04:45:24;;;;;;;;;;;21.60;51.90;;;;;;5107650;28;19931;-60
2023/09/02 04:47:51;;;;;;;;;;;21.60;51.90;;;;;;5104979;28;19935;-60
2023/09/02 04:50:18;;;;;;;;;;;21.60;51.90;;;;;;5106920;28;20026;-61
2023/09/02 04:52:45;;;;;;;;;;;21.60;51.90;;;;;;5105858;28;19924;-60
2023/09/02 04:55:13;;;;;;;;;;;21.60;51.90;;;;;;5091245;28;19959;-61
2023/09/02 04:57:40;;;;;;;;;;;21.60;51.90;;;;;;5113047;28;19928;-60
2023/09/02 05:00:08;;;;;;;;;;;21.60;51.90;;;;;;5110004;27;19993;-60
2023/09/02 05:02:35;;;;;;;;;;;21.60;51.90;;;;;;5116941;27;19924;-61
2023/09/02 05:05:02;;;;;;;;;;;21.60;51.90;;;;;;5094921;28;19927;-61
2023/09/02 05:07:29;;;;;;;;;;;21.60;51.90;;;;;;5114245;28;19923;-60
2023/09/02 05:09:56;;;;;;;;;;;21.50;51.70;;;;;;5095346;28;19924;-61
2023/09/02 05:12:24;;;;;;;;;;;21.50;51.70;;;;;;5098652;28;19951;-60
2023/09/02 05:14:51;;;;;;;;;;;21.50;51.80;;;;;;5100511;28;19924;-61
2023/09/02 05:17:17;;;;;;;;;;;21.60;51.90;;;;;;5101498;28;19985;-61
2023/09/02 05:19:44;;;;;;;;;;;21.50;51.80;;;;;;5101449;28;19924;-61
2023/09/02 05:22:11;;;;;;;;;;;21.50;51.80;;;;;;5101102;28;19928;-61
2023/09/02 05:24:38;;;;;;;;;;;21.50;51.80;;;;;;5107524;28;19928;-60
2023/09/02 05:27:06;;;;;;;;;;;21.50;51.80;;;;;;5113876;28;19924;-61
2023/09/02 05:29:34;;;;;;;;;;;21.50;51.80;;;;;;5096698;28;19924;-59
2023/09/02 05:32:01;;;;;;;;;;;21.50;51.80;;;;;;5084238;28;20022;-61
2023/09/02 05:34:27;;;;;;;;;;;21.50;51.80;;;;;;5118877;27;19981;-60
2023/09/02 05:36:54;;;;;;;;;;;21.50;51.80;;;;;;5096188;28;19935;-60
2023/09/02 05:39:21;;;;;;;;;;;21.50;51.90;;;;;;5110096;27;19974;-61
2023/09/02 05:41:47;;;;;;;;;;;21.50;51.90;;;;;;5095868;28;19949;-60
2023/09/02 05:44:14;;;;;;;;;;;21.50;51.90;;;;;;5114860;27;19924;-60
2023/09/02 05:46:42;;;;;;;;;;;21.50;51.90;;;;;;5085200;28;19960;-60
2023/09/02 05:49:09;;;;;;;;;;;21.50;52.00;;;;;;5094403;28;19939;-60
2023/09/02 05:51:36;;;;;;;;;;;21.50;52.00;;;;;;5100545;28;19924;-60
2023/09/02 05:54:02;;;;;;;;;;;21.50;52.00;;;;;;5110298;28;19932;-60
2023/09/02 05:56:31;;;;;;;;;;;21.50;52.00;;;;;;5115813;27;19923;-61
2023/09/02 05:58:58;;;;;;;;;;;21.50;52.00;;;;;;5102796;28;19928;-60
2023/09/02 06:01:25;;;;;;;;;;;21.50;52.10;;;;;;5090877;28;19952;-61
2023/09/02 06:03:53;;;;;;;;;;;21.50;52.10;;;;;;5108881;28;19973;-60
2023/09/02 06:06:20;;;;;;;;;;;21.50;52.10;;;;;;5083344;28;19993;-60
2023/09/02 06:08:46;;;;;;;;;;;21.50;52.20;;;;;;5080303;28;20416;-60
2023/09/02 06:11:13;;;;;;;;;;;21.50;52.20;;;;;;5089889;28;19977;-61
2023/09/02 06:13:40;;;;;;;;;;;21.50;52.20;;;;;;5094364;28;19927;-60
2023/09/02 06:16:07;;;;;;;;;;;21.50;52.20;;;;;;5094455;28;19932;-60
2023/09/02 06:18:34;;;;;;;;;;;21.50;52.30;;;;;;5087685;28;19989;-60
2023/09/02 06:21:05;;;;;;;;;;;21.50;52.30;;;;;;5097109;28;19924;-60
2023/09/02 06:23:31;;;;;;;;;;;21.50;52.40;;;;;;5087996;28;20435;-61
2023/09/02 06:25:58;;;;;;;;;;;21.50;52.40;;;;;;5091984;28;19928;-61
2023/09/02 06:28:25;;;;;;;;;;;21.50;52.50;;;;;;5089718;28;19947;-61
2023/09/02 06:30:52;;;;;;;;;;;21.60;52.70;;;;;;5094076;28;19928;-61
2023/09/02 06:33:20;;;;;;;;;;;21.50;52.50;;;;;;5096632;28;19927;-61
2023/09/02 06:35:47;;;;;;;;;;;21.50;52.60;;;;;;5085872;28;19970;-59
2023/09/02 06:38:15;;;;;;;;;;;21.60;52.70;;;;;;5089382;28;20257;-61
2023/09/02 06:40:42;;;;;;;;;;;21.60;52.80;;;;;;5089854;28;20001;-60
2023/09/02 06:43:08;;;;;;;;;;;21.60;52.90;;;;;;5094074;28;19973;-60
2023/09/02 06:45:35;;;;;;;;;;;21.60;52.90;;;;;;5089668;28;19932;-61
2023/09/02 06:48:02;;;;;;;;;;;21.60;52.90;;;;;;5108493;28;19928;-60
2023/09/02 06:50:29;;;;;;;;;;;21.60;53.00;;;;;;5090689;28;19981;-61
2023/09/02 06:52:56;;;;;;;;;;;21.60;53.00;;;;;;5092814;28;19924;-61
2023/09/02 06:55:24;;;;;;;;;;;21.60;53.10;;;;;;5096725;28;19931;-60
2023/09/02 06:57:51;;;;;;;;;;;21.60;53.10;;;;;;5090376;28;19924;-60
2023/09/02 07:00:17;;;;;;;;;;;21.60;53.20;;;;;;5104823;28;19984;-61
2023/09/02 07:02:44;;;;;;;;;;;21.60;53.20;;;;;;5103051;27;19947;-59
2023/09/02 07:05:11;;;;;;;;;;;21.60;53.30;;;;;;5107073;28;19931;-60
2023/09/02 07:07:38;;;;;;;;;;;21.60;53.40;;;;;;5092004;28;19924;-61
2023/09/02 07:10:05;;;;;;;;;;;21.60;53.40;;;;;;5088880;28;19924;-60
2023/09/02 07:12:33;;;;;;;;;;;21.60;53.50;;;;;;5088119;28;19924;-61
2023/09/02 07:14:59;;;;;;;;;;;21.60;53.50;;;;;;5106254;27;19977;-61
2023/09/02 07:17:28;;;;;;;;;;;21.60;53.60;;;;;;5089403;28;19937;-61
2023/09/02 07:19:55;;;;;;;;;;;21.60;53.60;;;;;;5092450;28;19924;-58
2023/09/02 07:22:21;;;;;;;;;;;21.60;53.70;;;;;;5090574;28;19927;-60
2023/09/02 07:24:48;;;;;;;;;;;21.60;53.70;;;;;;5083855;28;20122;-60
2023/09/02 07:27:15;;;;;;;;;;;21.60;53.70;;;;;;5102723;28;19931;-60
2023/09/02 07:29:43;;;;;;;;;;;21.60;54.40;;;;;;5102656;28;20000;-59
2023/09/02 07:32:10;;;;;;;;;;;21.60;53.80;;;;;;5084592;28;19948;-60
2023/09/02 07:34:41;;;;;;;;;;;21.60;53.90;;;;;;5087474;28;20163;-60
2023/09/02 07:37:08;;;;;;;;;;;21.60;53.90;;;;;;5098027;28;19966;-59
2023/09/02 07:39:34;;;;;;;;;;;21.60;53.90;;;;;;5089303;28;19977;-60
2023/09/02 07:42:01;;;;;;;;;;;21.60;53.90;;;;;;5089569;28;19931;-60
2023/09/02 07:44:28;;;;;;;;;;;21.60;53.90;;;;;;5089358;28;20033;-60
2023/09/02 07:46:56;;;;;;;;;;;21.60;54.00;;;;;;5110557;27;19928;-59
2023/09/02 07:49:23;;;;;;;;;;;21.60;54.00;;;;;;5087753;28;19984;-60
2023/09/02 07:51:50;;;;;;;;;;;21.60;54.10;;;;;;5092625;28;19932;-59
2023/09/02 07:54:16;;;;;;;;;;;21.60;54.50;;;;;;5089033;28;19932;-60
2023/09/02 07:56:43;;;;;;;;;;;21.60;54.50;;;;;;5104286;28;19923;-60
2023/09/02 07:59:10;;;;;;;;;;;21.60;54.80;;;;;;5105806;28;19937;-60
2023/09/02 08:01:36;;;;;;;;;;;21.60;54.80;;;;;;5089553;28;19947;-59
2023/09/02 08:04:05;;;;;;;;;;;21.60;54.90;;;;;;5088171;28;20384;-59
2023/09/02 08:06:32;;;;;;;;;;;21.60;54.90;;;;;;5086777;28;19974;-60
2023/09/02 08:08:59;;;;;;;;;;;21.50;54.80;;;;;;5094134;28;19988;-59
2023/09/02 08:11:25;;;;;;;;;;;21.60;54.90;;;;;;5103177;28;19930;-59
2023/09/02 08:13:52;;;;;;;;;;;21.50;54.90;;;;;;5101999;28;20228;-60
2023/09/02 08:16:19;;;;;;;;;;;21.50;54.90;;;;;;5092995;28;19935;-59
2023/09/02 08:18:45;;;;;;;;;;;21.60;54.90;;;;;;5090273;28;19949;-59
2023/09/02 08:21:13;;;;;;;;;;;21.60;55.40;;;;;;5090250;28;19957;-59
2023/09/02 08:23:40;;;;;;;;;;;21.50;54.70;;;;;;5089804;28;19965;-58
2023/09/02 08:26:10;;;;;;;;;;;21.60;54.70;;;;;;5091922;28;19932;-60
2023/09/02 08:28:37;;;;;;;;;;;21.60;54.70;;;;;;5093275;28;19924;-59
2023/09/02 08:31:03;;;;;;;;;;;21.60;54.70;;;;;;5091554;28;19982;-58
2023/09/02 08:33:30;;;;;;;;;;;21.60;54.70;;;;;;5086984;28;19928;-59
2023/09/02 08:35:57;;;;;;;;;;;21.60;54.80;;;;;;5095425;28;19928;-59
2023/09/02 08:38:25;;;;;;;;;;;21.60;54.70;;;;;;5093103;28;19924;-59
2023/09/02 08:40:52;;;;;;;;;;;21.60;54.80;;;;;;5092773;28;19947;-59
2023/09/02 08:43:19;;;;;;;;;;;21.60;54.80;;;;;;5110165;28;19978;-59
2023/09/02 08:45:45;;;;;;;;;;;21.60;54.90;;;;;;5090755;28;20181;-58
2023/09/02 08:48:12;;;;;;;;;;;21.60;54.90;;;;;;5107080;27;19932;-59
2023/09/02 08:50:39;;;;;;;;;;;21.60;54.80;;;;;;5085563;28;19932;-59
2023/09/02 08:53:05;;;;;;;;;;;21.60;54.80;;;;;;5107298;27;19932;-59
2023/09/02 08:55:34;;;;;;;;;;;21.50;54.70;;;;;;5094197;28;19924;-60
2023/09/02 08:58:00;;;;;;;;;;;21.50;54.60;;;;;;5107612;27;19935;-59
2023/09/02 09:00:27;;;;;;;;;;;21.50;54.70;;;;;;5092987;28;19969;-60
2023/09/02 09:02:54;;;;;;;;;;;21.50;54.80;;;;;;5094782;28;19927;-58
2023/09/02 09:05:21;;;;;;;;;;;21.50;54.80;;;;;;5088424;28;19936;-59
2023/09/02 09:07:48;;;;;;;;;;;21.50;54.80;;;;;;5100492;28;19931;-65
2023/09/02 09:10:15;;;;;;;;;;;21.50;54.80;;;;;;5084245;28;19925;-64
2023/09/02 09:12:43;;;;;;;;;;;21.50;54.50;;;;;;5102083;28;20018;-63
2023/09/02 09:15:10;;;;;;;;;;;21.50;54.50;;;;;;5096013;28;19924;-65
2023/09/02 09:17:37;;;;;;;;;;;21.50;54.40;;;;;;5095833;28;19925;-64
2023/09/02 09:20:04;;;;;;;;;;;21.40;54.60;;;;;;5094224;28;19932;-63
2023/09/02 09:22:35;;;;;;;;;;;21.40;54.70;;;;;;5089360;28;19959;-61
2023/09/02 09:25:02;;;;;;;;;;;21.40;53.40;;;;;;5089487;28;19930;-62
2023/09/02 09:27:29;;;;;;;;;;;21.40;53.20;;;;;;5091656;28;19928;-61
2023/09/02 09:29:58;;;;;;;;;;;21.40;53.10;;;;;;5094268;28;19939;-61
2023/09/02 09:32:25;;;;;;;;;;;21.30;52.80;;;;;;5096317;28;19924;-61
2023/09/02 09:34:52;;;;;;;;;;;21.30;52.40;;;;;;5088881;28;19924;-63
2023/09/02 09:37:18;;;;;;;;;;;21.30;52.20;;;;;;5094649;28;19928;-61
2023/09/02 09:39:46;;;;;;;;;;;21.30;52.10;;;;;;5111751;27;19974;-62
2023/09/02 09:42:13;;;;;;;;;;;21.30;52.20;;;;;;5080480;28;19920;-63
2023/09/02 09:44:53;;;;;;;;;;;21.30;52.30;;;;;;5093956;28;20351;-63
2023/09/02 09:47:22;;;;;;;;;;;21.30;52.50;;;;;;5090500;28;19931;-62
2023/09/02 09:49:49;;;;;;;;;;;21.30;52.30;;;;;;5108841;28;19938;-62
2023/09/02 09:52:16;;;;;;;;;;;21.30;52.10;;;;;;5089667;28;19928;-61
2023/09/02 09:54:45;;;;;;;;;;;21.30;52.10;;;;;;5102373;28;19924;-62
2023/09/02 09:57:13;;;;;;;;;;;21.30;51.70;;;;;;5092331;28;19923;-62
2023/09/02 09:59:40;;;;;;;;;;;21.30;51.40;;;;;;5117869;27;19978;-62
2023/09/02 10:02:07;;;;;;;;;;;21.30;51.70;;;;;;5111537;27;20271;-62
2023/09/02 10:04:35;;;;;;;;;;;21.30;51.10;;;;;;5092973;28;19939;-61
2023/09/02 10:07:02;;;;;;;;;;;21.30;51.20;;;;;;5091571;28;19989;-61
2023/09/02 10:09:40;;;;;;;;;;;21.20;51.20;;;;;;5091755;28;19974;-62
2023/09/02 10:12:10;;;;;;;;;;;21.30;51.90;;;;;;5091573;28;19920;-61
2023/09/02 10:14:37;;;;;;;;;;;21.30;50.40;;;;;;5074777;28;20465;-62
2023/09/02 10:17:04;;;;;;;;;;;21.30;49.90;;;;;;5093757;28;19981;-61
2023/09/02 10:19:31;;;;;;;;;;;21.30;49.50;;;;;;5086859;28;19928;-62
2023/09/02 10:21:59;;;;;;;;;;;21.30;49.30;;;;;;5099038;28;19924;-61
2023/09/02 10:24:26;;;;;;;;;;;21.30;49.30;;;;;;5091598;28;19924;-61
2023/09/02 10:26:53;;;;;;;;;;;21.30;49.40;;;;;;5092168;28;19924;-59
2023/09/02 10:29:22;;;;;;;;;;;21.30;49.70;;;;;;5091655;28;19920;-60
2023/09/02 10:31:49;;;;;;;;;;;21.30;48.90;;;;;;5091116;28;19931;-60
2023/09/02 10:34:19;;;;;;;;;;;21.30;48.80;;;;;;5090563;28;19924;-61
2023/09/02 10:36:46;;;;;;;;;;;21.30;48.60;;;;;;5096759;28;19924;-61
2023/09/02 10:39:17;;;;;;;;;;;21.30;48.20;;;;;;5102093;28;19931;-61
2023/09/02 10:41:44;;;;;;;;;;;21.40;48.70;;;;;;5094613;28;19928;-62
2023/09/02 10:44:11;;;;;;;;;;;21.40;48.80;;;;;;5097732;28;20259;-63
2023/09/02 10:46:38;;;;;;;;;;;21.40;48.60;;;;;;5088884;28;20008;-63
2023/09/02 10:49:05;;;;;;;;;;;21.40;48.60;;;;;;5095589;28;19936;-63
2023/09/02 10:51:32;;;;;;;;;;;21.40;48.70;;;;;;5092690;28;19939;-63
2023/09/02 10:54:00;;;;;;;;;;;21.50;48.40;;;;;;5092800;28;19970;-63
2023/09/02 10:56:28;;;;;;;;;;;21.50;48.20;;;;;;5104700;28;19928;-64
2023/09/02 10:58:55;;;;;;;;;;;21.50;48.10;;;;;;5111054;27;19928;-64
2023/09/02 11:01:22;;;;;;;;;;;21.50;47.70;;;;;;5096783;28;19928;-64
2023/09/02 11:03:49;;;;;;;;;;;21.50;47.20;;;;;;5091336;28;19932;-61
2023/09/02 11:06:17;;;;;;;;;;;21.50;46.30;;;;;;5091447;28;19920;-62
2023/09/02 11:08:46;;;;;;;;;;;21.50;46.00;;;;;;5087956;28;19927;-63
2023/09/02 11:11:13;;;;;;;;;;;21.60;45.80;;;;;;5091521;28;19924;-64
2023/09/02 11:13:57;;;;;;;;;;;21.60;45.40;;;;;;5092757;28;19924;-63
2023/09/02 11:16:26;;;;;;;;;;;21.60;45.40;;;;;;5101954;27;19927;-63
2023/09/02 11:18:53;;;;;;;;;;;21.60;45.50;;;;;;5083046;28;19929;-63
2023/09/02 11:21:41;;;;;;;;;;;21.60;45.30;;;;;;5101969;28;19924;-62
2023/09/02 11:24:14;;;;;;;;;;;21.60;44.70;;;;;;5089222;28;19932;-63
2023/09/02 11:26:51;;;;;;;;;;;21.60;45.10;;;;;;5103893;28;20095;-62
2023/09/02 11:29:21;;;;;;;;;;;21.60;45.80;;;;;;5082776;28;19924;-63
2023/09/02 11:31:56;;;;;;;;;;;21.60;46.10;;;;;;5114437;27;19924;-63
2023/09/02 11:34:23;;;;;;;;;;;21.60;45.80;;;;;;5101279;28;19971;-63
2023/09/02 11:36:51;;;;;;;;;;;21.70;46.10;;;;;;5090627;28;19970;-62
2023/09/02 11:39:18;;;;;;;;;;;21.70;44.80;;;;;;5092920;28;19931;-63
2023/09/02 11:41:45;;;;;;;;;;;21.60;44.80;;;;;;5085736;28;19924;-63
2023/09/02 11:44:12;;;;;;;;;;;21.60;44.40;;;;;;5107842;27;19928;-63
2023/09/02 11:46:39;;;;;;;;;;;21.60;44.20;;;;;;5084433;28;19924;-63
2023/09/02 11:49:12;;;;;;;;;;;21.50;44.40;;;;;;5087417;28;19978;-62
2023/09/02 11:51:39;;;;;;;;;;;21.50;44.80;;;;;;5092763;28;19966;-63
2023/09/02 11:54:06;;;;;;;;;;;21.50;44.90;;;;;;5088731;28;19977;-62
2023/09/02 11:56:35;;;;;;;;;;;21.50;44.90;;;;;;5091019;28;21245;-63
2023/09/02 11:59:02;;;;;;;;;;;21.50;45.00;;;;;;5097438;28;19931;-62
2023/09/02 12:01:28;;;;;;;;;;;21.50;45.20;;;;;;5088759;28;20365;-63
2023/09/02 12:03:55;;;;;;;;;;;21.50;45.70;;;;;;5090138;28;19971;-63
2023/09/02 12:06:24;;;;;;;;;;;21.50;46.20;;;;;;5111491;28;19985;-63
2023/09/02 12:08:51;;;;;;;;;;;21.50;46.10;;;;;;5116221;28;19928;-63
2023/09/02 12:11:17;;;;;;;;;;;21.50;46.20;;;;;;5090644;28;20270;-63
2023/09/02 12:13:44;;;;;;;;;;;21.60;46.40;;;;;;5092119;28;19947;-63
2023/09/02 12:16:15;;;;;;;;;;;21.60;46.10;;;;;;5086284;28;19928;-63
2023/09/02 12:18:42;;;;;;;;;;;21.70;46.20;;;;;;5090840;28;19932;-63
2023/09/02 12:21:09;;;;;;;;;;;21.70;45.40;;;;;;5123366;28;19935;-63
2023/09/02 12:23:37;;;;;;;;;;;21.70;45.90;;;;;;5088445;28;19953;-63
2023/09/02 12:26:05;;;;;;;;;;;21.70;45.30;;;;;;5089319;28;19928;-62
2023/09/02 12:28:32;;;;;;;;;;;21.70;45.40;;;;;;5089119;28;20301;-63
2023/09/02 12:30:58;;;;;;;;;;;21.70;45.10;;;;;;5093590;28;19932;-61
2023/09/02 12:33:25;;;;;;;;;;;21.70;44.90;;;;;;5100197;28;19977;-62
2023/09/02 12:35:52;;;;;;;;;;;21.70;45.30;;;;;;5084025;28;19939;-61
2023/09/02 12:38:20;;;;;;;;;;;21.70;45.40;;;;;;5089986;28;19931;-60
2023/09/02 12:40:53;;;;;;;;;;;21.80;45.40;;;;;;5095565;28;19924;-60
2023/09/02 12:43:23;;;;;;;;;;;21.90;44.50;;;;;;5123973;28;19924;-60
2023/09/02 12:45:50;;;;;;;;;;;21.90;45.10;;;;;;5082164;28;19935;-60
2023/09/02 12:48:17;;;;;;;;;;;21.90;45.00;;;;;;5087304;28;20369;-59
2023/09/02 12:50:44;;;;;;;;;;;21.90;44.80;;;;;;5090527;28;19940;-60
2023/09/02 12:53:12;;;;;;;;;;;22.00;44.10;;;;;;5094653;28;19928;-59
2023/09/02 12:55:40;;;;;;;;;;;22.00;44.50;;;;;;5075816;28;19932;-58
2023/09/02 12:58:08;;;;;;;;;;;22.00;44.80;;;;;;5096691;28;19923;-59
2023/09/02 13:00:35;;;;;;;;;;;22.00;44.30;;;;;;5086004;28;19928;-60
2023/09/02 13:03:01;;;;;;;;;;;22.00;43.90;;;;;;5113313;27;19928;-59
2023/09/02 13:05:29;;;;;;;;;;;22.00;43.20;;;;;;5086984;28;19969;-59
2023/09/02 13:07:55;;;;;;;;;;;22.10;43.60;;;;;;5088124;28;19990;-60
2023/09/02 13:10:22;;;;;;;;;;;22.10;43.50;;;;;;5090511;28;19928;-59
2023/09/02 13:12:49;;;;;;;;;;;22.20;43.20;;;;;;5089285;28;19942;-60
2023/09/02 13:15:17;;;;;;;;;;;22.20;43.20;;;;;;5121958;27;19936;-59
2023/09/02 13:17:46;;;;;;;;;;;22.20;42.60;;;;;;5084283;28;19953;-61
2023/09/02 13:20:15;;;;;;;;;;;22.30;42.40;;;;;;5117933;27;19931;-60
2023/09/02 13:22:42;;;;;;;;;;;22.30;42.90;;;;;;5087243;28;20001;-59
2023/09/02 13:25:10;;;;;;;;;;;22.30;42.80;;;;;;5090803;28;19932;-59
2023/09/02 13:27:36;;;;;;;;;;;22.30;42.10;;;;;;5101922;28;19977;-58
2023/09/02 13:30:04;;;;;;;;;;;22.30;41.00;;;;;;5087974;28;19924;-59
2023/09/02 13:32:32;;;;;;;;;;;22.40;41.20;;;;;;5084323;28;19924;-59
2023/09/02 13:35:03;;;;;;;;;;;22.40;41.00;;;;;;5095931;28;19977;-59
2023/09/02 13:37:30;;;;;;;;;;;22.40;41.50;;;;;;5097867;28;19924;-59
2023/09/02 13:39:58;;;;;;;;;;;22.40;42.10;;;;;;5092061;28;19924;-59
2023/09/02 13:42:24;;;;;;;;;;;22.40;42.00;;;;;;5107460;28;19940;-60
2023/09/02 13:44:51;;;;;;;;;;;22.50;41.30;;;;;;5108922;28;19924;-60
2023/09/02 13:47:18;;;;;;;;;;;22.50;42.30;;;;;;5108438;28;19945;-60
2023/09/02 13:49:51;;;;;;;;;;;22.50;42.20;;;;;;5091441;28;19928;-60
2023/09/02 13:52:18;;;;;;;;;;;22.50;41.50;;;;;;5094356;28;19924;-60
2023/09/02 13:54:45;;;;;;;;;;;22.50;41.60;;;;;;5091701;28;19931;-61
2023/09/02 13:57:12;;;;;;;;;;;22.50;41.40;;;;;;5108719;28;19974;-60
2023/09/02 13:59:38;;;;;;;;;;;22.50;40.60;;;;;;5124231;27;19969;-60
2023/09/02 14:02:05;;;;;;;;;;;22.40;40.20;;;;;;5093710;28;20011;-60
2023/09/02 14:04:32;;;;;;;;;;;22.40;40.90;;;;;;5093787;28;19931;-60
2023/09/02 14:07:01;;;;;;;;;;;22.40;41.20;;;;;;5098115;28;19923;-60
2023/09/02 14:09:27;;;;;;;;;;;22.40;40.70;;;;;;5097825;28;19991;-60
2023/09/02 14:11:54;;;;;;;;;;;22.40;40.90;;;;;;5102673;28;19959;-61
2023/09/02 14:14:21;;;;;;;;;;;22.40;40.50;;;;;;5107807;28;19935;-62
2023/09/02 14:16:49;;;;;;;;;;;22.30;40.80;;;;;;5093029;28;19930;-61